createdAt,value
2023-01-08T00:01:51.094Z,95039.56
2023-01-08T00:04:19.090Z,95043.25
2023-01-08T00:06:47.311Z,95045.53
2023-01-08T00:09:15.512Z,95041.53
2023-01-08T00:11:44.809Z,95040.00
2023-01-08T00:14:12.938Z,95038.97
2023-01-08T00:16:40.983Z,95041.34
2023-01-08T00:19:08.882Z,95043.66
2023-01-08T00:21:36.772Z,95039.31
2023-01-08T00:24:04.977Z,95038.59
2023-01-08T00:26:33.144Z,95030.50
2023-01-08T00:29:02.415Z,95027.06
2023-01-08T00:31:30.335Z,95029.69
2023-01-08T00:33:58.234Z,95029.94
2023-01-08T00:36:26.175Z,95036.72
2023-01-08T00:38:54.030Z,95034.47
2023-01-08T00:41:21.907Z,95040.94
2023-01-08T00:43:49.796Z,95043.63
2023-01-08T00:46:19.101Z,95041.78
2023-01-08T00:48:46.992Z,95037.03
2023-01-08T00:51:14.890Z,95036.97
2023-01-08T00:53:42.764Z,95041.16
2023-01-08T00:56:12.097Z,95041.91
2023-01-08T00:58:40.135Z,95039.47
2023-01-08T01:01:11.855Z,95043.47
2023-01-08T01:03:41.292Z,95041.50
2023-01-08T01:06:10.007Z,95049.53
2023-01-08T01:08:38.042Z,95049.03
2023-01-08T01:11:08.723Z,95049.34
2023-01-08T01:13:36.651Z,95048.59
2023-01-08T01:16:05.454Z,95043.41
2023-01-08T01:18:33.355Z,95038.28
2023-01-08T01:21:02.610Z,95037.16
2023-01-08T01:23:30.546Z,95036.88
2023-01-08T01:25:58.568Z,95040.97
2023-01-08T01:28:26.537Z,95033.69
2023-01-08T01:30:58.466Z,95034.34
2023-01-08T01:33:26.407Z,95030.47
2023-01-08T01:36:05.393Z,95034.06
2023-01-08T01:38:33.334Z,95036.22
2023-01-08T01:41:01.231Z,95026.28
2023-01-08T01:43:37.368Z,95029.88
2023-01-08T01:46:07.916Z,95026.19
2023-01-08T01:48:35.884Z,95022.00
2023-01-08T01:51:05.427Z,95028.25
2023-01-08T01:53:36.164Z,95026.09
2023-01-08T01:56:05.574Z,95021.59
2023-01-08T01:58:33.997Z,95024.97
2023-01-08T02:01:06.171Z,95021.72
2023-01-08T02:03:37.222Z,95025.50
2023-01-08T02:06:17.372Z,95019.22
2023-01-08T02:08:56.304Z,95014.03
2023-01-08T02:11:31.093Z,95005.63
2023-01-08T02:14:05.632Z,95013.91
2023-01-08T02:16:40.768Z,95005.91
2023-01-08T02:19:18.660Z,95003.69
2023-01-08T02:22:03.559Z,94996.69
2023-01-08T02:24:47.875Z,95001.41
2023-01-08T02:27:19.387Z,95000.09
2023-01-08T02:29:49.137Z,95000.50
2023-01-08T02:32:17.750Z,94998.84
2023-01-08T02:34:45.759Z,94996.91
2023-01-08T02:37:13.712Z,94994.34
2023-01-08T02:39:51.369Z,94994.53
2023-01-08T02:42:32.844Z,94993.09
2023-01-08T02:45:08.933Z,94993.59
2023-01-08T02:47:40.672Z,94989.88
2023-01-08T02:50:16.667Z,94984.53
2023-01-08T02:52:53.966Z,94975.91
2023-01-08T02:55:25.520Z,94978.41
2023-01-08T02:57:55.251Z,94976.69
2023-01-08T03:00:24.119Z,94985.09
2023-01-08T03:02:56.526Z,94994.66
2023-01-08T03:05:27.542Z,94987.38
2023-01-08T03:07:56.801Z,94986.78
2023-01-08T03:10:27.735Z,94997.72
2023-01-08T03:13:02.836Z,94992.09
2023-01-08T03:15:35.352Z,94995.06
2023-01-08T03:18:08.576Z,94991.72
2023-01-08T03:20:38.520Z,94998.75
2023-01-08T03:23:10.459Z,94992.22
2023-01-08T03:25:42.205Z,94995.59
2023-01-08T03:28:16.630Z,94995.69
2023-01-08T03:30:46.730Z,94999.19
2023-01-08T03:33:17.469Z,94992.34
2023-01-08T03:35:49.155Z,95001.22
2023-01-08T03:38:22.146Z,95001.75
2023-01-08T03:40:55.979Z,94992.13
2023-01-08T03:43:25.907Z,94992.41
2023-01-08T03:45:59.256Z,94990.78
2023-01-08T03:48:29.614Z,94985.38
2023-01-08T03:50:57.494Z,94982.28
2023-01-08T03:53:25.423Z,94987.81
2023-01-08T03:55:53.299Z,94989.97
2023-01-08T03:58:21.248Z,94988.31
2023-01-08T04:00:50.492Z,94985.69
2023-01-08T04:03:18.432Z,94986.78
2023-01-08T04:05:46.402Z,94990.69
2023-01-08T04:08:14.294Z,94991.28
2023-01-08T04:10:42.369Z,94993.84
2023-01-08T04:13:10.338Z,94988.94
2023-01-08T04:15:38.269Z,94997.53
2023-01-08T04:18:07.592Z,94997.94
2023-01-08T04:20:35.496Z,94997.22
2023-01-08T04:23:03.375Z,94986.38
2023-01-08T04:25:31.264Z,94999.16
2023-01-08T04:27:59.127Z,94994.63
2023-01-08T04:30:26.993Z,94993.53
2023-01-08T04:32:54.970Z,94995.56
2023-01-08T04:35:24.340Z,94988.91
2023-01-08T04:37:52.246Z,94996.06
2023-01-08T04:40:20.154Z,94995.31
2023-01-08T04:42:48.006Z,95002.47
2023-01-08T04:45:16.092Z,95000.13
2023-01-08T04:47:44.057Z,94992.47
2023-01-08T04:50:11.980Z,94995.28
2023-01-08T04:52:41.221Z,95000.94
2023-01-08T04:55:09.473Z,95000.50
2023-01-08T04:57:37.415Z,95001.22
2023-01-08T05:00:06.859Z,95003.06
2023-01-08T05:02:35.036Z,95002.06
2023-01-08T05:05:03.132Z,95001.31
2023-01-08T05:07:31.057Z,95006.22
2023-01-08T05:10:00.375Z,95007.44
2023-01-08T05:12:28.274Z,95003.97
2023-01-08T05:14:56.141Z,95012.28
2023-01-08T05:17:24.089Z,95009.63
2023-01-08T05:19:51.949Z,95007.44
2023-01-08T05:22:19.827Z,94999.16
2023-01-08T05:24:47.756Z,95000.16
2023-01-08T05:27:17.110Z,95007.19
2023-01-08T05:29:47.111Z,95008.56
2023-01-08T05:32:17.467Z,95003.44
2023-01-08T05:34:46.074Z,95001.19
2023-01-08T05:37:14.242Z,95006.56
2023-01-08T05:39:42.176Z,95006.09
2023-01-08T05:42:10.107Z,95011.41
2023-01-08T05:44:39.416Z,95008.31
2023-01-08T05:47:07.278Z,95007.78
2023-01-08T05:49:35.224Z,95011.97
2023-01-08T05:52:03.221Z,95009.75
2023-01-08T05:54:31.203Z,94999.53
2023-01-08T05:56:59.094Z,95012.63
2023-01-08T05:59:26.971Z,95010.38
2023-01-08T06:01:56.642Z,95009.13
2023-01-08T06:04:24.899Z,95006.38
2023-01-08T06:06:53.071Z,95014.78
2023-01-08T06:09:21.364Z,95015.81
2023-01-08T06:11:49.312Z,95021.28
2023-01-08T06:14:17.566Z,95023.84
2023-01-08T06:16:45.599Z,95022.09
2023-01-08T06:19:15.167Z,95022.31
2023-01-08T06:21:43.103Z,95018.22
2023-01-08T06:24:11.297Z,95021.34
2023-01-08T06:26:39.255Z,95019.06
2023-01-08T06:29:07.319Z,95030.34
2023-01-08T06:31:36.171Z,95016.84
2023-01-08T06:34:04.194Z,95018.78
2023-01-08T06:36:33.608Z,95033.19
2023-01-08T06:39:01.610Z,95026.19
2023-01-08T06:41:29.569Z,95031.19
2023-01-08T06:43:57.533Z,95035.50
2023-01-08T06:46:25.545Z,95031.56
2023-01-08T06:48:53.755Z,95029.81
2023-01-08T06:51:21.779Z,95040.75
2023-01-08T06:53:51.271Z,95043.31
2023-01-08T06:56:19.233Z,95038.22
2023-01-08T06:58:47.234Z,95046.03
2023-01-08T07:01:16.118Z,95040.69
2023-01-08T07:03:44.703Z,95052.31
2023-01-08T07:06:16.541Z,95037.69
2023-01-08T07:08:44.850Z,95057.97
2023-01-08T07:11:15.454Z,95057.84
2023-01-08T07:13:44.255Z,95056.03
2023-01-08T07:16:13.997Z,95053.78
2023-01-08T07:18:42.803Z,95069.88
2023-01-08T07:21:10.822Z,95067.94
2023-01-08T07:23:39.092Z,95066.06
2023-01-08T07:26:08.758Z,95068.84
2023-01-08T07:28:38.100Z,95061.81
2023-01-08T07:31:06.907Z,95058.41
2023-01-08T07:33:35.284Z,95059.94
2023-01-08T07:36:03.550Z,95066.50
2023-01-08T07:38:31.505Z,95071.53
2023-01-08T07:40:59.769Z,95074.78
2023-01-08T07:43:30.084Z,95069.16
2023-01-08T07:45:59.722Z,95074.72
2023-01-08T07:48:27.578Z,95073.78
2023-01-08T07:50:55.550Z,95072.97
2023-01-08T07:53:23.500Z,95077.19
2023-01-08T07:55:51.422Z,95075.25
2023-01-08T07:58:19.390Z,95084.97
2023-01-08T08:00:47.512Z,95084.34
2023-01-08T08:03:16.910Z,95078.09
2023-01-08T08:05:44.938Z,95077.81
2023-01-08T08:08:14.239Z,95075.53
2023-01-08T08:10:43.515Z,95077.63
2023-01-08T08:13:12.337Z,95081.09
2023-01-08T08:15:41.349Z,95068.66
2023-01-08T08:18:09.703Z,95074.00
2023-01-08T08:20:39.837Z,95077.44
2023-01-08T08:23:09.469Z,95078.34
2023-01-08T08:25:37.802Z,95082.41
2023-01-08T08:28:06.918Z,95079.19
2023-01-08T08:30:41.355Z,95080.50
2023-01-08T08:33:10.537Z,95077.88
2023-01-08T08:35:39.971Z,95080.84
2023-01-08T08:38:07.957Z,95083.25
2023-01-08T08:40:35.969Z,95081.66
2023-01-08T08:43:05.540Z,95082.97
2023-01-08T08:45:33.761Z,95084.97
2023-01-08T08:48:01.817Z,95085.94
2023-01-08T08:50:29.939Z,95082.53
2023-01-08T08:53:01.899Z,95074.19
2023-01-08T08:55:30.452Z,95078.19
2023-01-08T08:58:05.428Z,95081.53
2023-01-08T09:00:33.885Z,95084.41
2023-01-08T09:03:01.964Z,95082.19
2023-01-08T09:05:30.266Z,95083.13
2023-01-08T09:07:58.483Z,95078.78
2023-01-08T09:10:27.925Z,95074.50
2023-01-08T09:12:56.001Z,95072.81
2023-01-08T09:15:24.275Z,95068.50
2023-01-08T09:17:56.201Z,95055.41
2023-01-08T09:20:24.717Z,95066.19
2023-01-08T09:22:52.947Z,95061.03
2023-01-08T09:25:20.916Z,95061.81
2023-01-08T09:27:50.219Z,95059.53
2023-01-08T09:30:18.265Z,95054.63
2023-01-08T09:32:46.210Z,95061.50
2023-01-08T09:35:14.143Z,95052.78
2023-01-08T09:37:42.040Z,95046.47
2023-01-08T09:40:16.528Z,95040.81
2023-01-08T09:42:44.921Z,95033.84
2023-01-08T09:45:28.773Z,95030.66
2023-01-08T09:48:00.366Z,95027.38
2023-01-08T09:50:30.606Z,95028.91
2023-01-08T09:52:59.344Z,95013.88
2023-01-08T09:55:33.013Z,95008.44
2023-01-08T09:58:03.382Z,95005.72
2023-01-08T10:00:35.784Z,95005.41
2023-01-08T10:03:03.846Z,95005.81
2023-01-08T10:05:32.161Z,94990.47
2023-01-08T10:08:00.370Z,94995.38
2023-01-08T10:10:31.933Z,94996.22
2023-01-08T10:13:00.487Z,94986.16
2023-01-08T10:15:42.469Z,94989.03
2023-01-08T10:18:14.825Z,94987.22
2023-01-08T10:20:42.816Z,94980.88
2023-01-08T10:23:12.997Z,94979.66
2023-01-08T10:25:55.196Z,94971.53
2023-01-08T10:28:24.859Z,94960.16
2023-01-08T10:30:55.560Z,94970.00
2023-01-08T10:33:26.761Z,94956.72
2023-01-08T10:35:59.166Z,94959.63
2023-01-08T10:38:34.117Z,94958.34
2023-01-08T10:41:04.522Z,94957.22
2023-01-08T10:43:36.187Z,94950.22
2023-01-08T10:46:08.726Z,94937.19
2023-01-08T10:48:40.364Z,94938.13
2023-01-08T10:51:15.740Z,94936.25
2023-01-08T10:53:43.984Z,94937.25
2023-01-08T10:56:21.435Z,94931.00
2023-01-08T10:58:49.596Z,94936.19
2023-01-08T11:01:23.694Z,94921.00
2023-01-08T11:03:52.866Z,94921.84
2023-01-08T11:06:24.169Z,94923.03
2023-01-08T11:08:54.057Z,94914.28
2023-01-08T11:11:22.719Z,94910.97
2023-01-08T11:13:58.889Z,94910.97
2023-01-08T11:16:36.604Z,94918.16
2023-01-08T11:19:05.607Z,94912.41
2023-01-08T11:21:36.172Z,94911.53
2023-01-08T11:24:13.461Z,94910.16
2023-01-08T11:26:45.361Z,94905.31
2023-01-08T11:29:18.146Z,94911.28
2023-01-08T11:31:54.307Z,94905.00
2023-01-08T11:34:29.999Z,94894.09
2023-01-08T11:37:04.624Z,94896.81
2023-01-08T11:39:34.591Z,94894.72
2023-01-08T11:42:19.923Z,94890.44
2023-01-08T11:45:03.689Z,94892.75
2023-01-08T11:47:49.339Z,94883.09
2023-01-08T11:50:23.254Z,94878.25
2023-01-08T11:53:11.443Z,94869.44
2023-01-08T11:55:59.652Z,94867.75
2023-01-08T11:58:38.243Z,94865.06
2023-01-08T12:01:26.209Z,94863.09
2023-01-08T12:04:08.290Z,94860.59
2023-01-08T12:06:45.830Z,94845.56
2023-01-08T12:09:25.444Z,94851.44
2023-01-08T12:11:58.571Z,94857.47
2023-01-08T12:14:53.701Z,94851.97
2023-01-08T12:17:41.670Z,94843.66
2023-01-08T12:20:27.521Z,94843.34
2023-01-08T12:23:06.395Z,94840.44
2023-01-08T12:25:59.944Z,94845.47
2023-01-08T12:29:10.162Z,94839.47
2023-01-08T12:32:07.382Z,94833.50
2023-01-08T12:34:44.670Z,94832.09
2023-01-08T12:37:19.851Z,94830.31
2023-01-08T12:39:56.815Z,94815.28
2023-01-08T12:42:30.840Z,94825.38
2023-01-08T12:45:02.018Z,94818.09
2023-01-08T12:47:35.834Z,94823.13
2023-01-08T12:50:19.770Z,94815.25
2023-01-08T12:52:54.789Z,94819.66
2023-01-08T12:55:34.445Z,94817.47
2023-01-08T12:58:10.918Z,94821.03
2023-01-08T13:00:42.648Z,94818.88
2023-01-08T13:03:16.257Z,94811.22
2023-01-08T13:05:44.921Z,94798.84
2023-01-08T13:08:33.021Z,94810.53
2023-01-08T13:11:01.803Z,94804.56
2023-01-08T13:13:32.502Z,94802.59
2023-01-08T13:16:19.642Z,94803.22
2023-01-08T13:18:56.200Z,94795.63
2023-01-08T13:21:33.347Z,94803.13
2023-01-08T13:24:26.867Z,94805.53
2023-01-08T13:26:55.205Z,94791.25
2023-01-08T13:29:38.939Z,94800.75
2023-01-08T13:32:25.105Z,94797.22
2023-01-08T13:35:04.782Z,94791.22
2023-01-08T13:37:32.763Z,94800.06
2023-01-08T13:40:04.040Z,94795.41
2023-01-08T13:42:32.714Z,94800.44
2023-01-08T13:45:02.873Z,94797.03
2023-01-08T13:47:34.057Z,94796.78
2023-01-08T13:50:06.548Z,94799.28
2023-01-08T13:52:42.257Z,94800.06
2023-01-08T13:55:17.499Z,94789.97
2023-01-08T13:57:49.971Z,94796.63
2023-01-08T14:00:26.138Z,94792.34
2023-01-08T14:02:55.240Z,94797.09
2023-01-08T14:05:26.717Z,94789.06
2023-01-08T14:07:56.041Z,94792.56
2023-01-08T14:10:26.426Z,94795.22
2023-01-08T14:12:54.849Z,94788.44
2023-01-08T14:15:26.205Z,94789.81
2023-01-08T14:17:55.378Z,94793.91
2023-01-08T14:20:36.934Z,94794.44
2023-01-08T14:23:11.867Z,94788.47
2023-01-08T14:25:42.350Z,94791.31
2023-01-08T14:28:17.277Z,94784.22
2023-01-08T14:30:49.365Z,94779.75
2023-01-08T14:33:18.391Z,94784.50
2023-01-08T14:35:46.927Z,94781.06
2023-01-08T14:38:15.993Z,94785.72
2023-01-08T14:40:51.152Z,94778.50
2023-01-08T14:43:22.151Z,94774.16
2023-01-08T14:45:53.667Z,94767.72
2023-01-08T14:48:25.632Z,94780.78
2023-01-08T14:51:04.352Z,94766.41
2023-01-08T14:53:36.708Z,94769.91
2023-01-08T14:56:07.760Z,94776.03
2023-01-08T14:58:38.431Z,94774.16
2023-01-08T15:01:10.671Z,94765.09
2023-01-08T15:03:41.210Z,94760.16
2023-01-08T15:06:11.549Z,94767.84
2023-01-08T15:08:41.204Z,94756.56
2023-01-08T15:11:22.710Z,94751.72
2023-01-08T15:13:53.030Z,94771.00
2023-01-08T15:16:31.382Z,94767.13
2023-01-08T15:19:05.312Z,94762.22
2023-01-08T15:21:33.613Z,94767.22
2023-01-08T15:24:02.677Z,94770.78
2023-01-08T15:26:32.813Z,94767.22
2023-01-08T15:29:03.382Z,94766.41
2023-01-08T15:31:33.582Z,94750.19
2023-01-08T15:34:02.106Z,94770.78
2023-01-08T15:36:30.150Z,94770.94
2023-01-08T15:38:58.208Z,94769.34
2023-01-08T15:41:48.922Z,94762.19
2023-01-08T15:44:18.242Z,94762.19
2023-01-08T15:46:46.188Z,94764.47
2023-01-08T15:49:14.374Z,94769.66
2023-01-08T15:51:44.923Z,94765.59
2023-01-08T15:54:13.960Z,94761.63
2023-01-08T15:56:42.385Z,94753.78
2023-01-08T15:59:11.437Z,94766.88
2023-01-08T16:01:42.152Z,94761.66
2023-01-08T16:04:10.222Z,94768.34
2023-01-08T16:06:38.213Z,94771.94
2023-01-08T16:09:07.121Z,94770.28
2023-01-08T16:11:35.021Z,94768.06
2023-01-08T16:14:02.966Z,94767.91
2023-01-08T16:16:31.263Z,94771.16
2023-01-08T16:19:01.664Z,94774.69
2023-01-08T16:21:29.635Z,94771.22
2023-01-08T16:23:57.806Z,94768.09
2023-01-08T16:26:25.855Z,94765.63
2023-01-08T16:28:54.482Z,94760.94
2023-01-08T16:31:22.466Z,94767.75
2023-01-08T16:33:50.432Z,94767.91
2023-01-08T16:36:19.789Z,94774.34
2023-01-08T16:38:49.652Z,94770.38
2023-01-08T16:41:17.711Z,94767.03
2023-01-08T16:43:46.040Z,94773.31
2023-01-08T16:46:14.954Z,94770.56
2023-01-08T16:48:43.369Z,94772.00
2023-01-08T16:51:12.456Z,94772.28
2023-01-08T16:53:42.560Z,94778.00
2023-01-08T16:56:11.412Z,94771.06
2023-01-08T16:58:39.401Z,94774.03
2023-01-08T17:01:12.362Z,94776.84
2023-01-08T17:03:40.865Z,94768.03
2023-01-08T17:06:11.192Z,94781.53
2023-01-08T17:08:40.333Z,94785.69
2023-01-08T17:11:12.504Z,94777.13
2023-01-08T17:13:41.243Z,94783.25
2023-01-08T17:16:11.170Z,94787.47
2023-01-08T17:18:39.726Z,94789.88
2023-01-08T17:21:08.853Z,94789.25
2023-01-08T17:23:37.641Z,94792.94
2023-01-08T17:26:08.929Z,94786.41
2023-01-08T17:28:38.965Z,94796.09
2023-01-08T17:31:08.994Z,94791.50
2023-01-08T17:33:38.153Z,94801.81
2023-01-08T17:36:11.553Z,94797.56
2023-01-08T17:38:39.682Z,94784.53
2023-01-08T17:41:09.102Z,94795.09
2023-01-08T17:43:39.519Z,94802.38
2023-01-08T17:46:08.848Z,94794.72
2023-01-08T17:48:36.931Z,94810.88
2023-01-08T17:51:09.543Z,94811.97
2023-01-08T17:53:38.071Z,94809.31
2023-01-08T17:56:06.537Z,94816.38
2023-01-08T17:58:34.988Z,94813.00
2023-01-08T18:01:04.604Z,94815.44
2023-01-08T18:03:32.663Z,94824.81
2023-01-08T18:06:06.488Z,94815.31
2023-01-08T18:08:36.502Z,94822.91
2023-01-08T18:11:05.648Z,94822.38
2023-01-08T18:13:34.897Z,94826.84
2023-01-08T18:16:04.684Z,94830.41
2023-01-08T18:18:33.454Z,94825.47
2023-01-08T18:21:01.527Z,94824.69
2023-01-08T18:23:31.162Z,94837.56
2023-01-08T18:26:05.232Z,94831.19
2023-01-08T18:28:33.268Z,94830.06
2023-01-08T18:31:01.278Z,94829.69
2023-01-08T18:33:30.607Z,94837.28
2023-01-08T18:36:06.254Z,94833.47
2023-01-08T18:38:34.858Z,94833.88
2023-01-08T18:41:04.140Z,94837.94
2023-01-08T18:43:33.294Z,94824.63
2023-01-08T18:46:02.094Z,94842.38
2023-01-08T18:48:32.179Z,94837.34
2023-01-08T18:51:05.415Z,94832.56
2023-01-08T18:53:34.169Z,94844.50
2023-01-08T18:56:02.831Z,94854.03
2023-01-08T18:58:31.431Z,94844.41
2023-01-08T19:01:04.424Z,94848.06
2023-01-08T19:03:34.468Z,94845.34
2023-01-08T19:06:02.459Z,94844.53
2023-01-08T19:08:30.472Z,94852.66
2023-01-08T19:10:58.533Z,94858.31
2023-01-08T19:13:26.652Z,94856.81
2023-01-08T19:15:54.610Z,94850.72
2023-01-08T19:18:23.017Z,94861.31
2023-01-08T19:20:52.679Z,94874.75
2023-01-08T19:23:21.067Z,94864.81
2023-01-08T19:25:49.096Z,94875.16
2023-01-08T19:28:17.693Z,94869.47
2023-01-08T19:30:45.703Z,94878.63
2023-01-08T19:33:16.139Z,94878.97
2023-01-08T19:35:44.184Z,94882.75
2023-01-08T19:38:13.562Z,94876.16
2023-01-08T19:40:41.695Z,94866.25
2023-01-08T19:43:28.078Z,94874.13
2023-01-08T19:45:56.175Z,94863.69
2023-01-08T19:48:24.408Z,94879.38
2023-01-08T19:50:52.404Z,94875.16
2023-01-08T19:53:21.724Z,94883.97
2023-01-08T19:55:49.700Z,94893.44
2023-01-08T19:58:19.499Z,94894.53
2023-01-08T20:00:47.637Z,94883.28
2023-01-08T20:03:17.589Z,94880.03
2023-01-08T20:05:45.505Z,94883.94
2023-01-08T20:08:13.547Z,94881.88
2023-01-08T20:10:42.877Z,94888.09
2023-01-08T20:13:10.902Z,94881.16
2023-01-08T20:15:39.268Z,94880.78
2023-01-08T20:18:07.246Z,94859.44
2023-01-08T20:20:35.194Z,94881.06
2023-01-08T20:23:03.340Z,94885.78
2023-01-08T20:25:31.457Z,94886.72
2023-01-08T20:28:02.096Z,94881.31
2023-01-08T20:30:30.137Z,94885.50
2023-01-08T20:32:58.030Z,94878.28
2023-01-08T20:35:25.945Z,94870.56
2023-01-08T20:37:54.308Z,94889.03
2023-01-08T20:40:22.317Z,94888.47
2023-01-08T20:42:50.330Z,94891.44
2023-01-08T20:45:19.651Z,94881.69
2023-01-08T20:47:48.117Z,94884.81
2023-01-08T20:50:20.264Z,94893.72
2023-01-08T20:52:48.586Z,94897.25
2023-01-08T20:55:18.559Z,94894.78
2023-01-08T20:57:48.470Z,94901.34
2023-01-08T21:00:17.149Z,94906.66
2023-01-08T21:02:46.523Z,94908.31
2023-01-08T21:05:14.518Z,94912.94
2023-01-08T21:07:42.475Z,94910.06
2023-01-08T21:10:12.024Z,94917.88
2023-01-08T21:12:40.104Z,94913.63
2023-01-08T21:15:09.744Z,94908.66
2023-01-08T21:17:37.770Z,94910.53
2023-01-08T21:20:09.223Z,94901.81
2023-01-08T21:22:37.239Z,94905.22
2023-01-08T21:25:06.091Z,94904.94
2023-01-08T21:27:34.175Z,94902.66
2023-01-08T21:30:03.988Z,94900.22
2023-01-08T21:32:32.077Z,94914.47
2023-01-08T21:35:00.018Z,94904.31
2023-01-08T21:37:30.362Z,94891.25
2023-01-08T21:39:58.349Z,94906.31
2023-01-08T21:42:43.751Z,94913.06
2023-01-08T21:45:27.694Z,94909.00
2023-01-08T21:47:58.523Z,94900.31
2023-01-08T21:50:26.903Z,94910.66
2023-01-08T21:53:25.827Z,94908.13
2023-01-08T21:55:53.860Z,94910.75
2023-01-08T21:58:21.884Z,94904.19
2023-01-08T22:00:49.843Z,94906.88
2023-01-08T22:03:17.884Z,94907.81
2023-01-08T22:05:45.960Z,94913.19
2023-01-08T22:08:20.725Z,94921.25
2023-01-08T22:10:48.820Z,94901.28
2023-01-08T22:13:16.880Z,94908.75
2023-01-08T22:15:45.057Z,94886.47
2023-01-08T22:18:13.089Z,94875.88
2023-01-08T22:20:42.969Z,94896.06
2023-01-08T22:23:11.091Z,94899.81
2023-01-08T22:25:42.228Z,94891.66
2023-01-08T22:28:11.573Z,94885.34
2023-01-08T22:30:40.834Z,94876.72
2023-01-08T22:33:08.794Z,94882.91
2023-01-08T22:35:38.504Z,94871.50
2023-01-08T22:38:06.525Z,94870.66
2023-01-08T22:40:34.441Z,94883.50
2023-01-08T22:43:03.725Z,94877.88
2023-01-08T22:45:32.804Z,94868.56
2023-01-08T22:48:00.828Z,94879.97
2023-01-08T22:50:28.832Z,94860.50
2023-01-08T22:52:56.828Z,94871.56
2023-01-08T22:55:24.902Z,94870.66
2023-01-08T22:57:53.349Z,94874.16
2023-01-08T23:00:23.135Z,94864.47
2023-01-08T23:02:51.112Z,94869.94
2023-01-08T23:05:19.347Z,94848.25
2023-01-08T23:07:47.263Z,94849.66
2023-01-08T23:10:15.127Z,94858.41
2023-01-08T23:12:43.474Z,94858.88
2023-01-08T23:15:11.961Z,94856.16
2023-01-08T23:17:51.517Z,94850.59
2023-01-08T23:20:20.562Z,94838.34
2023-01-08T23:22:49.507Z,94846.06
2023-01-08T23:25:17.868Z,94846.03
2023-01-08T23:27:45.948Z,94854.47
2023-01-08T23:30:14.205Z,94853.63
2023-01-08T23:32:43.467Z,94857.63
2023-01-08T23:35:11.425Z,94857.16
2023-01-08T23:37:39.307Z,94848.88
2023-01-08T23:40:08.322Z,94850.72
2023-01-08T23:42:36.547Z,94845.94
2023-01-08T23:45:04.567Z,94836.16
2023-01-08T23:47:32.551Z,94837.88
2023-01-08T23:50:01.897Z,94841.97
2023-01-08T23:52:29.911Z,94852.59
2023-01-08T23:54:57.848Z,94836.63
2023-01-08T23:57:25.777Z,94835.28
2023-01-08T23:59:56.041Z,94829.97
